Skip Navigation Links
NOAA logo - Click to go to the NOAA homepage
NOAA's National Weather Service
Alaska Aviation Weather Unit
  NWS logo - Click to go to the NWS homepage
Left Navbar Graphic     08 AKDT = 16 GMT

   
NOAA is celebrating 200 years of science, service, and stewardship. Visit the NOAA 200th celebration Web site to learn more.
USA.gov is the U.S. Government's official Web portal to all Federal, state and local government Web resources and services.
Facebook
NWS on Facebook

Important Change Regarding the AAWU Web Presence

 

Over the last several months, the AAWU has been working to navigate its webpages to a nationally supported server. Security, as well as other needs, have necessitated the change.  In the process, we have made an effort to enhance the functionality of our website, as well as some of our products. As of June 20, 2017, aawu.arh.noaa.gov will be discontinued. The new AAWU web address is weather.gov/aawu. It is now live and will run in-parallel with the old site until it is discontinued. Please send any feedback or questions regarding the new webpages to nws.ar.aawu.webauthors@noaa.gov.  Thank you for your patience during this time of transition.
AAWU Home :: Display TAF Add Bookmark
TAF PATK 291512Z 2915/3012 VRB03KT P6SM -RA BKN025 OVC040
     FM292000 19008KT P6SM -SHRA OVC025
     FM300600 17008KT P6SM SCT025 OVC050=

METAR PATK 291053Z AUTO 04005KT 10SM -RA OVC039 06/04 A2987 RMK AO2 SLP119 P0003 T00560039 TSNO $= METAR PATK 291153Z AUTO 06005KT 8SM -RA SCT029 OVC034 06/04 A2986 RMK AO2 SLP116 P0006 60012 70017 T00560039 10078 20056 58004 TSNO $= METAR PATK 291253Z AUTO 06004KT 10SM -RA OVC033 06/04 A2985 RMK AO2 SLP113 P0006 T00560039 TSNO $= METAR PATK 291353Z AUTO 07003KT 9SM -RA FEW028 OVC035 06/04 A2985 RMK AO2 SLP111 P0005 T00560039 TSNO $= PATK 291453Z AUTO 06003KT 7SM -RA OVC034 05/03 A2985 RMK AO2 SLP111 P0006 60017 T00500033 56005 TSNO $= PATK 291509Z AUTO 07004KT 6SM -RA BR OVC029 05/04 A2985= METAR PATK 291553Z 07004KT 8SM -RA OVC025 05/03 A2985 RMK AO2 SLP113 P0006 T00500033 $= PATK 291651Z 06004KT 10SM -RA OVC034 05/04 A2986 RMK AO2 P0004 $=
 Alaska TAF Map

NOAA's National Weather Service
Alaska Aviation Weather Unit
6930 Sand Lake Road
Anchorage, AK 99502-1845
Disclaimer
Credits
Glossary
Privacy Policy
About Us
Career Opportunities
Contact AAWU Internet Services Site last modified: April, 17th 2012